sensor_id;sensor_type;location;lat;lon;timestamp;P1;durP1;ratioP1;P2;durP2;ratioP2
21657;SDS011;10990;48.174;9.782;2022-07-29T00:02:04;6.38;;;4.40;;
21657;SDS011;10990;48.174;9.782;2022-07-29T00:04:33;4.20;;;3.47;;
21657;SDS011;10990;48.174;9.782;2022-07-29T00:07:00;3.92;;;3.22;;
21657;SDS011;10990;48.174;9.782;2022-07-29T00:09:28;4.93;;;2.97;;
21657;SDS011;10990;48.174;9.782;2022-07-29T00:11:56;3.78;;;3.38;;
21657;SDS011;10990;48.174;9.782;2022-07-29T00:14:26;4.32;;;3.22;;
21657;SDS011;10990;48.174;9.782;2022-07-29T00:16:52;4.72;;;3.80;;
21657;SDS011;10990;48.174;9.782;2022-07-29T00:19:21;4.43;;;3.00;;
21657;SDS011;10990;48.174;9.782;2022-07-29T00:21:48;4.43;;;3.10;;
21657;SDS011;10990;48.174;9.782;2022-07-29T00:24:16;4.05;;;3.65;;
21657;SDS011;10990;48.174;9.782;2022-07-29T00:26:43;4.10;;;2.78;;
21657;SDS011;10990;48.174;9.782;2022-07-29T00:29:10;5.22;;;2.65;;
21657;SDS011;10990;48.174;9.782;2022-07-29T00:31:37;4.82;;;2.83;;
21657;SDS011;10990;48.174;9.782;2022-07-29T00:34:04;2.80;;;2.50;;
21657;SDS011;10990;48.174;9.782;2022-07-29T00:36:53;4.32;;;2.70;;
21657;SDS011;10990;48.174;9.782;2022-07-29T00:39:19;2.63;;;2.42;;
21657;SDS011;10990;48.174;9.782;2022-07-29T00:41:46;3.25;;;2.67;;
21657;SDS011;10990;48.174;9.782;2022-07-29T00:44:14;2.85;;;2.60;;
21657;SDS011;10990;48.174;9.782;2022-07-29T00:46:42;3.13;;;2.50;;
21657;SDS011;10990;48.174;9.782;2022-07-29T00:49:10;4.05;;;2.90;;
21657;SDS011;10990;48.174;9.782;2022-07-29T00:51:38;5.00;;;2.83;;
21657;SDS011;10990;48.174;9.782;2022-07-29T00:54:07;5.07;;;2.90;;
21657;SDS011;10990;48.174;9.782;2022-07-29T00:56:35;3.78;;;3.10;;
21657;SDS011;10990;48.174;9.782;2022-07-29T00:59:03;3.40;;;3.10;;
21657;SDS011;10990;48.174;9.782;2022-07-29T01:01:30;5.00;;;3.30;;
21657;SDS011;10990;48.174;9.782;2022-07-29T01:03:58;3.78;;;3.00;;
21657;SDS011;10990;48.174;9.782;2022-07-29T01:06:25;3.90;;;3.00;;
21657;SDS011;10990;48.174;9.782;2022-07-29T01:08:53;3.70;;;3.17;;
21657;SDS011;10990;48.174;9.782;2022-07-29T01:11:22;3.08;;;2.78;;
21657;SDS011;10990;48.174;9.782;2022-07-29T01:13:51;4.45;;;3.10;;
21657;SDS011;10990;48.174;9.782;2022-07-29T01:16:21;3.75;;;3.28;;
21657;SDS011;10990;48.174;9.782;2022-07-29T01:18:53;4.05;;;3.38;;
21657;SDS011;10990;48.174;9.782;2022-07-29T01:21:42;3.83;;;2.90;;
21657;SDS011;10990;48.174;9.782;2022-07-29T01:24:30;4.53;;;3.28;;
21657;SDS011;10990;48.174;9.782;2022-07-29T01:27:12;4.53;;;3.45;;
21657;SDS011;10990;48.174;9.782;2022-07-29T01:29:54;3.38;;;2.90;;
21657;SDS011;10990;48.174;9.782;2022-07-29T01:32:24;3.20;;;2.90;;
21657;SDS011;10990;48.174;9.782;2022-07-29T01:34:55;3.53;;;3.10;;
21657;SDS011;10990;48.174;9.782;2022-07-29T01:37:28;3.33;;;2.88;;
21657;SDS011;10990;48.174;9.782;2022-07-29T01:39:59;5.13;;;3.78;;
21657;SDS011;10990;48.174;9.782;2022-07-29T01:42:31;7.68;;;3.95;;
21657;SDS011;10990;48.174;9.782;2022-07-29T01:45:06;4.65;;;3.33;;
21657;SDS011;10990;48.174;9.782;2022-07-29T01:47:38;5.20;;;3.70;;
21657;SDS011;10990;48.174;9.782;2022-07-29T01:50:11;5.40;;;3.65;;
21657;SDS011;10990;48.174;9.782;2022-07-29T01:52:44;5.05;;;3.45;;
21657;SDS011;10990;48.174;9.782;2022-07-29T01:55:16;3.63;;;3.30;;
21657;SDS011;10990;48.174;9.782;2022-07-29T01:57:48;4.50;;;3.60;;
21657;SDS011;10990;48.174;9.782;2022-07-29T02:00:18;5.47;;;3.65;;
21657;SDS011;10990;48.174;9.782;2022-07-29T02:02:47;6.57;;;4.65;;
21657;SDS011;10990;48.174;9.782;2022-07-29T02:05:17;8.38;;;3.50;;
21657;SDS011;10990;48.174;9.782;2022-07-29T02:07:46;4.75;;;3.53;;
21657;SDS011;10990;48.174;9.782;2022-07-29T02:10:16;3.80;;;3.33;;
21657;SDS011;10990;48.174;9.782;2022-07-29T02:12:45;4.40;;;3.10;;
21657;SDS011;10990;48.174;9.782;2022-07-29T02:15:13;3.50;;;2.70;;
21657;SDS011;10990;48.174;9.782;2022-07-29T02:17:45;2.65;;;2.45;;
21657;SDS011;10990;48.174;9.782;2022-07-29T02:20:18;4.72;;;3.10;;
21657;SDS011;10990;48.174;9.782;2022-07-29T02:22:46;3.00;;;2.70;;
21657;SDS011;10990;48.174;9.782;2022-07-29T02:25:16;4.20;;;2.80;;
21657;SDS011;10990;48.174;9.782;2022-07-29T02:27:44;4.55;;;2.80;;
21657;SDS011;10990;48.174;9.782;2022-07-29T02:30:13;3.80;;;2.40;;
21657;SDS011;10990;48.174;9.782;2022-07-29T02:32:41;3.05;;;2.50;;
21657;SDS011;10990;48.174;9.782;2022-07-29T02:35:12;3.05;;;2.50;;
21657;SDS011;10990;48.174;9.782;2022-07-29T02:37:41;5.43;;;2.60;;
21657;SDS011;10990;48.174;9.782;2022-07-29T02:40:10;2.03;;;1.90;;
21657;SDS011;10990;48.174;9.782;2022-07-29T02:42:41;3.65;;;1.80;;
21657;SDS011;10990;48.174;9.782;2022-07-29T02:45:10;1.67;;;1.52;;
21657;SDS011;10990;48.174;9.782;2022-07-29T02:47:39;1.70;;;1.60;;
21657;SDS011;10990;48.174;9.782;2022-07-29T02:50:12;2.05;;;1.38;;
21657;SDS011;10990;48.174;9.782;2022-07-29T02:52:44;1.60;;;1.50;;
21657;SDS011;10990;48.174;9.782;2022-07-29T02:55:15;1.48;;;1.38;;
21657;SDS011;10990;48.174;9.782;2022-07-29T02:57:47;3.08;;;1.40;;
21657;SDS011;10990;48.174;9.782;2022-07-29T03:00:18;1.70;;;1.40;;
21657;SDS011;10990;48.174;9.782;2022-07-29T03:02:49;3.45;;;1.75;;
21657;SDS011;10990;48.174;9.782;2022-07-29T03:05:21;2.67;;;1.58;;
21657;SDS011;10990;48.174;9.782;2022-07-29T03:07:51;3.15;;;1.67;;
21657;SDS011;10990;48.174;9.782;2022-07-29T03:10:21;2.92;;;1.63;;
21657;SDS011;10990;48.174;9.782;2022-07-29T03:12:49;3.45;;;1.70;;
21657;SDS011;10990;48.174;9.782;2022-07-29T03:15:17;2.08;;;1.67;;
21657;SDS011;10990;48.174;9.782;2022-07-29T03:17:46;3.47;;;1.65;;
21657;SDS011;10990;48.174;9.782;2022-07-29T03:20:14;3.25;;;1.63;;
21657;SDS011;10990;48.174;9.782;2022-07-29T03:22:44;3.25;;;1.75;;
21657;SDS011;10990;48.174;9.782;2022-07-29T03:25:13;3.13;;;2.05;;
21657;SDS011;10990;48.174;9.782;2022-07-29T03:27:42;2.30;;;2.05;;
21657;SDS011;10990;48.174;9.782;2022-07-29T03:30:10;4.03;;;2.10;;
21657;SDS011;10990;48.174;9.782;2022-07-29T03:32:38;2.17;;;1.90;;
21657;SDS011;10990;48.174;9.782;2022-07-29T03:35:06;2.33;;;2.10;;
21657;SDS011;10990;48.174;9.782;2022-07-29T03:37:34;2.40;;;1.90;;
21657;SDS011;10990;48.174;9.782;2022-07-29T03:40:05;2.97;;;2.00;;
21657;SDS011;10990;48.174;9.782;2022-07-29T03:42:36;4.95;;;1.83;;
21657;SDS011;10990;48.174;9.782;2022-07-29T03:45:07;2.45;;;1.88;;
21657;SDS011;10990;48.174;9.782;2022-07-29T03:47:38;3.15;;;1.60;;
21657;SDS011;10990;48.174;9.782;2022-07-29T03:50:10;3.50;;;2.00;;
21657;SDS011;10990;48.174;9.782;2022-07-29T03:52:40;3.50;;;1.90;;
21657;SDS011;10990;48.174;9.782;2022-07-29T03:55:09;2.70;;;1.60;;
21657;SDS011;10990;48.174;9.782;2022-07-29T03:57:38;4.45;;;1.60;;
21657;SDS011;10990;48.174;9.782;2022-07-29T04:00:07;3.97;;;1.55;;
21657;SDS011;10990;48.174;9.782;2022-07-29T04:02:35;2.13;;;1.42;;
21657;SDS011;10990;48.174;9.782;2022-07-29T04:05:05;1.52;;;1.42;;
21657;SDS011;10990;48.174;9.782;2022-07-29T04:07:39;2.28;;;1.63;;
21657;SDS011;10990;48.174;9.782;2022-07-29T04:10:06;2.15;;;1.60;;
21657;SDS011;10990;48.174;9.782;2022-07-29T04:12:36;2.95;;;1.50;;
21657;SDS011;10990;48.174;9.782;2022-07-29T04:15:05;3.00;;;1.58;;
21657;SDS011;10990;48.174;9.782;2022-07-29T04:17:33;2.13;;;1.70;;
21657;SDS011;10990;48.174;9.782;2022-07-29T04:20:00;3.30;;;1.42;;
21657;SDS011;10990;48.174;9.782;2022-07-29T04:22:28;6.50;;;1.70;;
21657;SDS011;10990;48.174;9.782;2022-07-29T04:24:56;2.05;;;1.85;;
21657;SDS011;10990;48.174;9.782;2022-07-29T04:27:25;1.83;;;1.70;;
21657;SDS011;10990;48.174;9.782;2022-07-29T04:29:52;4.35;;;1.67;;
21657;SDS011;10990;48.174;9.782;2022-07-29T04:32:20;2.35;;;1.90;;
21657;SDS011;10990;48.174;9.782;2022-07-29T04:34:48;4.35;;;1.80;;
21657;SDS011;10990;48.174;9.782;2022-07-29T04:37:16;3.10;;;1.67;;
21657;SDS011;10990;48.174;9.782;2022-07-29T04:39:44;2.85;;;1.60;;
21657;SDS011;10990;48.174;9.782;2022-07-29T04:42:11;1.95;;;1.70;;
21657;SDS011;10990;48.174;9.782;2022-07-29T04:44:39;3.15;;;1.50;;
21657;SDS011;10990;48.174;9.782;2022-07-29T04:47:07;3.67;;;1.77;;
21657;SDS011;10990;48.174;9.782;2022-07-29T04:49:37;1.70;;;1.40;;
21657;SDS011;10990;48.174;9.782;2022-07-29T04:52:05;2.72;;;1.60;;
21657;SDS011;10990;48.174;9.782;2022-07-29T04:54:33;3.90;;;1.77;;
21657;SDS011;10990;48.174;9.782;2022-07-29T04:57:00;2.33;;;1.52;;
21657;SDS011;10990;48.174;9.782;2022-07-29T04:59:29;2.80;;;1.65;;
21657;SDS011;10990;48.174;9.782;2022-07-29T05:01:57;6.07;;;1.77;;
21657;SDS011;10990;48.174;9.782;2022-07-29T05:04:24;2.22;;;1.48;;
21657;SDS011;10990;48.174;9.782;2022-07-29T05:06:51;2.50;;;1.38;;
21657;SDS011;10990;48.174;9.782;2022-07-29T05:09:18;2.63;;;1.50;;
21657;SDS011;10990;48.174;9.782;2022-07-29T05:11:46;4.22;;;1.63;;
21657;SDS011;10990;48.174;9.782;2022-07-29T05:14:13;4.60;;;1.67;;
21657;SDS011;10990;48.174;9.782;2022-07-29T05:16:41;2.15;;;1.60;;
21657;SDS011;10990;48.174;9.782;2022-07-29T05:19:10;2.38;;;1.55;;
21657;SDS011;10990;48.174;9.782;2022-07-29T05:21:37;2.45;;;1.20;;
21657;SDS011;10990;48.174;9.782;2022-07-29T05:24:05;2.10;;;1.20;;
21657;SDS011;10990;48.174;9.782;2022-07-29T05:26:33;1.25;;;1.10;;
21657;SDS011;10990;48.174;9.782;2022-07-29T05:29:00;2.13;;;1.40;;
21657;SDS011;10990;48.174;9.782;2022-07-29T05:31:27;2.10;;;1.30;;
21657;SDS011;10990;48.174;9.782;2022-07-29T05:33:54;1.83;;;1.50;;
21657;SDS011;10990;48.174;9.782;2022-07-29T05:36:23;1.30;;;1.20;;
21657;SDS011;10990;48.174;9.782;2022-07-29T05:38:50;2.08;;;1.25;;
21657;SDS011;10990;48.174;9.782;2022-07-29T05:41:18;2.00;;;1.38;;
21657;SDS011;10990;48.174;9.782;2022-07-29T05:43:46;1.58;;;1.20;;
21657;SDS011;10990;48.174;9.782;2022-07-29T05:46:13;2.45;;;1.20;;
21657;SDS011;10990;48.174;9.782;2022-07-29T05:48:40;1.75;;;1.20;;
21657;SDS011;10990;48.174;9.782;2022-07-29T05:51:08;1.45;;;1.02;;
21657;SDS011;10990;48.174;9.782;2022-07-29T05:53:37;1.55;;;1.10;;
21657;SDS011;10990;48.174;9.782;2022-07-29T05:56:04;2.30;;;1.10;;
21657;SDS011;10990;48.174;9.782;2022-07-29T05:58:32;2.35;;;1.10;;
21657;SDS011;10990;48.174;9.782;2022-07-29T06:00:59;1.38;;;1.20;;
21657;SDS011;10990;48.174;9.782;2022-07-29T06:03:27;1.08;;;0.98;;
21657;SDS011;10990;48.174;9.782;2022-07-29T06:05:55;1.30;;;1.20;;
21657;SDS011;10990;48.174;9.782;2022-07-29T06:08:22;1.50;;;1.20;;
21657;SDS011;10990;48.174;9.782;2022-07-29T06:10:51;1.05;;;1.02;;
21657;SDS011;10990;48.174;9.782;2022-07-29T06:13:18;1.30;;;1.20;;
21657;SDS011;10990;48.174;9.782;2022-07-29T06:15:45;2.05;;;1.30;;
21657;SDS011;10990;48.174;9.782;2022-07-29T06:18:12;1.40;;;1.20;;
21657;SDS011;10990;48.174;9.782;2022-07-29T06:20:39;1.40;;;1.27;;
21657;SDS011;10990;48.174;9.782;2022-07-29T06:23:07;2.47;;;1.27;;
21657;SDS011;10990;48.174;9.782;2022-07-29T06:25:35;2.13;;;1.15;;
21657;SDS011;10990;48.174;9.782;2022-07-29T06:28:05;3.00;;;1.23;;
21657;SDS011;10990;48.174;9.782;2022-07-29T06:30:32;1.33;;;1.23;;
21657;SDS011;10990;48.174;9.782;2022-07-29T06:33:00;1.15;;;1.05;;
21657;SDS011;10990;48.174;9.782;2022-07-29T06:35:28;1.27;;;1.13;;
21657;SDS011;10990;48.174;9.782;2022-07-29T06:37:54;1.60;;;1.30;;
21657;SDS011;10990;48.174;9.782;2022-07-29T06:40:22;1.77;;;1.30;;
21657;SDS011;10990;48.174;9.782;2022-07-29T06:43:09;1.85;;;1.35;;
21657;SDS011;10990;48.174;9.782;2022-07-29T06:45:36;1.33;;;1.00;;
21657;SDS011;10990;48.174;9.782;2022-07-29T06:48:06;1.30;;;1.20;;
21657;SDS011;10990;48.174;9.782;2022-07-29T06:50:33;3.83;;;1.50;;
21657;SDS011;10990;48.174;9.782;2022-07-29T06:53:00;3.28;;;1.60;;
21657;SDS011;10990;48.174;9.782;2022-07-29T06:55:27;1.58;;;1.48;;
21657;SDS011;10990;48.174;9.782;2022-07-29T06:57:56;1.40;;;1.30;;
21657;SDS011;10990;48.174;9.782;2022-07-29T07:00:25;1.92;;;1.50;;
21657;SDS011;10990;48.174;9.782;2022-07-29T07:02:52;2.53;;;1.65;;
21657;SDS011;10990;48.174;9.782;2022-07-29T07:05:19;1.98;;;1.40;;
21657;SDS011;10990;48.174;9.782;2022-07-29T07:07:46;1.92;;;1.40;;
21657;SDS011;10990;48.174;9.782;2022-07-29T07:10:13;2.40;;;1.40;;
21657;SDS011;10990;48.174;9.782;2022-07-29T07:12:41;1.35;;;1.20;;
21657;SDS011;10990;48.174;9.782;2022-07-29T07:15:08;1.20;;;1.08;;
21657;SDS011;10990;48.174;9.782;2022-07-29T07:17:37;2.35;;;1.10;;
21657;SDS011;10990;48.174;9.782;2022-07-29T07:20:05;3.15;;;1.42;;
21657;SDS011;10990;48.174;9.782;2022-07-29T07:22:33;1.42;;;1.30;;
21657;SDS011;10990;48.174;9.782;2022-07-29T07:25:00;1.45;;;1.33;;
21657;SDS011;10990;48.174;9.782;2022-07-29T07:27:27;1.40;;;1.30;;
21657;SDS011;10990;48.174;9.782;2022-07-29T07:29:55;1.92;;;1.38;;
21657;SDS011;10990;48.174;9.782;2022-07-29T07:32:22;1.40;;;1.30;;
21657;SDS011;10990;48.174;9.782;2022-07-29T07:34:51;1.60;;;1.40;;
21657;SDS011;10990;48.174;9.782;2022-07-29T07:37:18;3.80;;;1.65;;
21657;SDS011;10990;48.174;9.782;2022-07-29T07:39:45;2.03;;;1.35;;
21657;SDS011;10990;48.174;9.782;2022-07-29T07:42:13;1.63;;;1.48;;
21657;SDS011;10990;48.174;9.782;2022-07-29T07:44:41;1.90;;;1.70;;
21657;SDS011;10990;48.174;9.782;2022-07-29T07:47:11;3.17;;;1.75;;
21657;SDS011;10990;48.174;9.782;2022-07-29T07:49:37;2.33;;;1.80;;
21657;SDS011;10990;48.174;9.782;2022-07-29T07:52:07;1.70;;;1.45;;
21657;SDS011;10990;48.174;9.782;2022-07-29T07:54:34;1.60;;;1.50;;
21657;SDS011;10990;48.174;9.782;2022-07-29T07:57:01;2.55;;;1.60;;
21657;SDS011;10990;48.174;9.782;2022-07-29T07:59:30;2.83;;;1.75;;
21657;SDS011;10990;48.174;9.782;2022-07-29T08:01:57;2.88;;;1.60;;
21657;SDS011;10990;48.174;9.782;2022-07-29T08:04:25;2.22;;;1.77;;
21657;SDS011;10990;48.174;9.782;2022-07-29T08:06:52;1.40;;;1.30;;
21657;SDS011;10990;48.174;9.782;2022-07-29T08:09:22;1.50;;;1.38;;
21657;SDS011;10990;48.174;9.782;2022-07-29T08:11:49;1.80;;;1.50;;
21657;SDS011;10990;48.174;9.782;2022-07-29T08:14:16;1.60;;;1.50;;
21657;SDS011;10990;48.174;9.782;2022-07-29T08:16:44;1.98;;;1.60;;
21657;SDS011;10990;48.174;9.782;2022-07-29T08:19:12;1.92;;;1.70;;
21657;SDS011;10990;48.174;9.782;2022-07-29T08:21:39;1.70;;;1.60;;
21657;SDS011;10990;48.174;9.782;2022-07-29T08:24:07;2.15;;;1.92;;
21657;SDS011;10990;48.174;9.782;2022-07-29T08:26:53;2.15;;;1.92;;
21657;SDS011;10990;48.174;9.782;2022-07-29T08:29:20;2.15;;;1.95;;
21657;SDS011;10990;48.174;9.782;2022-07-29T08:31:47;2.53;;;1.88;;
21657;SDS011;10990;48.174;9.782;2022-07-29T08:34:15;2.10;;;1.90;;
21657;SDS011;10990;48.174;9.782;2022-07-29T08:36:42;2.17;;;2.00;;
21657;SDS011;10990;48.174;9.782;2022-07-29T08:39:10;2.42;;;2.17;;
21657;SDS011;10990;48.174;9.782;2022-07-29T08:41:38;2.90;;;1.88;;
21657;SDS011;10990;48.174;9.782;2022-07-29T08:44:06;1.80;;;1.70;;
21657;SDS011;10990;48.174;9.782;2022-07-29T08:46:36;2.42;;;1.90;;
21657;SDS011;10990;48.174;9.782;2022-07-29T08:49:05;2.08;;;1.88;;
21657;SDS011;10990;48.174;9.782;2022-07-29T08:51:32;2.17;;;1.98;;
21657;SDS011;10990;48.174;9.782;2022-07-29T08:54:02;2.40;;;2.20;;
21657;SDS011;10990;48.174;9.782;2022-07-29T08:56:29;2.85;;;2.10;;
21657;SDS011;10990;48.174;9.782;2022-07-29T08:58:57;3.45;;;2.70;;
21657;SDS011;10990;48.174;9.782;2022-07-29T09:01:27;2.30;;;2.10;;
21657;SDS011;10990;48.174;9.782;2022-07-29T09:03:57;3.20;;;2.50;;
21657;SDS011;10990;48.174;9.782;2022-07-29T09:06:27;2.65;;;2.45;;
21657;SDS011;10990;48.174;9.782;2022-07-29T09:08:59;2.72;;;1.77;;
21657;SDS011;10990;48.174;9.782;2022-07-29T09:11:27;2.30;;;2.10;;
21657;SDS011;10990;48.174;9.782;2022-07-29T09:13:54;2.35;;;2.15;;
21657;SDS011;10990;48.174;9.782;2022-07-29T09:16:22;2.72;;;2.50;;
21657;SDS011;10990;48.174;9.782;2022-07-29T09:18:51;2.67;;;2.47;;
21657;SDS011;10990;48.174;9.782;2022-07-29T09:21:18;2.58;;;2.38;;
21657;SDS011;10990;48.174;9.782;2022-07-29T09:24:15;2.63;;;2.42;;
21657;SDS011;10990;48.174;9.782;2022-07-29T09:26:43;2.97;;;2.35;;
21657;SDS011;10990;48.174;9.782;2022-07-29T09:29:12;3.03;;;2.30;;
21657;SDS011;10990;48.174;9.782;2022-07-29T09:31:43;3.08;;;2.50;;
21657;SDS011;10990;48.174;9.782;2022-07-29T09:34:15;3.50;;;2.67;;
21657;SDS011;10990;48.174;9.782;2022-07-29T09:36:44;2.45;;;2.25;;
21657;SDS011;10990;48.174;9.782;2022-07-29T09:39:13;3.10;;;2.50;;
21657;SDS011;10990;48.174;9.782;2022-07-29T09:41:45;5.93;;;2.70;;
21657;SDS011;10990;48.174;9.782;2022-07-29T09:44:14;3.35;;;2.40;;
21657;SDS011;10990;48.174;9.782;2022-07-29T09:46:53;2.85;;;2.42;;
21657;SDS011;10990;48.174;9.782;2022-07-29T09:49:22;4.82;;;2.58;;
21657;SDS011;10990;48.174;9.782;2022-07-29T09:51:58;3.20;;;2.30;;
21657;SDS011;10990;48.174;9.782;2022-07-29T09:54:27;2.38;;;2.08;;
21657;SDS011;10990;48.174;9.782;2022-07-29T09:57:00;2.70;;;2.50;;
21657;SDS011;10990;48.174;9.782;2022-07-29T09:59:27;2.70;;;2.50;;
21657;SDS011;10990;48.174;9.782;2022-07-29T10:01:55;2.60;;;2.40;;
21657;SDS011;10990;48.174;9.782;2022-07-29T10:04:23;2.78;;;2.55;;
21657;SDS011;10990;48.174;9.782;2022-07-29T10:06:57;4.05;;;2.75;;
21657;SDS011;10990;48.174;9.782;2022-07-29T10:09:26;2.95;;;2.10;;
21657;SDS011;10990;48.174;9.782;2022-07-29T10:12:07;3.35;;;2.72;;
21657;SDS011;10990;48.174;9.782;2022-07-29T10:14:36;3.00;;;2.70;;
21657;SDS011;10990;48.174;9.782;2022-07-29T10:17:05;2.95;;;2.60;;
21657;SDS011;10990;48.174;9.782;2022-07-29T10:19:34;3.78;;;2.60;;
21657;SDS011;10990;48.174;9.782;2022-07-29T10:22:04;4.40;;;2.38;;
21657;SDS011;10990;48.174;9.782;2022-07-29T10:24:32;2.53;;;2.33;;
21657;SDS011;10990;48.174;9.782;2022-07-29T10:27:01;3.38;;;2.67;;
21657;SDS011;10990;48.174;9.782;2022-07-29T10:29:29;3.60;;;2.25;;
21657;SDS011;10990;48.174;9.782;2022-07-29T10:32:02;2.40;;;2.20;;
21657;SDS011;10990;48.174;9.782;2022-07-29T10:34:47;3.63;;;2.50;;
21657;SDS011;10990;48.174;9.782;2022-07-29T10:37:42;2.08;;;1.90;;
21657;SDS011;10990;48.174;9.782;2022-07-29T10:40:22;2.17;;;1.98;;
21657;SDS011;10990;48.174;9.782;2022-07-29T10:43:17;2.40;;;2.20;;
21657;SDS011;10990;48.174;9.782;2022-07-29T10:45:47;2.30;;;2.10;;
21657;SDS011;10990;48.174;9.782;2022-07-29T10:48:16;2.47;;;2.08;;
21657;SDS011;10990;48.174;9.782;2022-07-29T10:50:59;2.55;;;2.22;;
21657;SDS011;10990;48.174;9.782;2022-07-29T10:56:25;2.92;;;2.40;;
21657;SDS011;10990;48.174;9.782;2022-07-29T11:01:56;2.63;;;2.42;;
21657;SDS011;10990;48.174;9.782;2022-07-29T11:07:30;4.57;;;2.50;;
21657;SDS011;10990;48.174;9.782;2022-07-29T11:12:50;3.42;;;2.40;;
21657;SDS011;10990;48.174;9.782;2022-07-29T11:15:19;3.63;;;2.55;;
21657;SDS011;10990;48.174;9.782;2022-07-29T11:18:05;2.47;;;2.28;;
21657;SDS011;10990;48.174;9.782;2022-07-29T11:20:34;2.80;;;2.50;;
21657;SDS011;10990;48.174;9.782;2022-07-29T11:28:52;2.95;;;2.33;;
21657;SDS011;10990;48.174;9.782;2022-07-29T11:31:36;2.30;;;2.08;;
21657;SDS011;10990;48.174;9.782;2022-07-29T11:34:16;2.40;;;2.20;;
21657;SDS011;10990;48.174;9.782;2022-07-29T11:42:45;5.18;;;2.50;;
21657;SDS011;10990;48.174;9.782;2022-07-29T11:45:14;2.83;;;2.60;;
21657;SDS011;10990;48.174;9.782;2022-07-29T11:47:47;3.53;;;2.80;;
21657;SDS011;10990;48.174;9.782;2022-07-29T11:50:27;3.15;;;2.95;;
21657;SDS011;10990;48.174;9.782;2022-07-29T11:52:59;3.00;;;2.70;;
21657;SDS011;10990;48.174;9.782;2022-07-29T11:55:29;3.10;;;2.80;;
21657;SDS011;10990;48.174;9.782;2022-07-29T11:58:02;4.07;;;2.85;;
21657;SDS011;10990;48.174;9.782;2022-07-29T12:00:29;3.58;;;2.80;;
21657;SDS011;10990;48.174;9.782;2022-07-29T12:03:00;2.78;;;2.58;;
21657;SDS011;10990;48.174;9.782;2022-07-29T12:05:33;3.25;;;2.90;;
21657;SDS011;10990;48.174;9.782;2022-07-29T12:08:10;3.00;;;2.80;;
21657;SDS011;10990;48.174;9.782;2022-07-29T12:10:50;3.42;;;2.83;;
21657;SDS011;10990;48.174;9.782;2022-07-29T12:13:19;4.25;;;2.88;;
21657;SDS011;10990;48.174;9.782;2022-07-29T12:15:53;3.35;;;3.05;;
21657;SDS011;10990;48.174;9.782;2022-07-29T12:18:22;3.67;;;2.90;;
21657;SDS011;10990;48.174;9.782;2022-07-29T12:20:56;3.50;;;2.72;;
21657;SDS011;10990;48.174;9.782;2022-07-29T12:23:27;2.60;;;2.40;;
21657;SDS011;10990;48.174;9.782;2022-07-29T12:25:55;2.92;;;2.70;;
21657;SDS011;10990;48.174;9.782;2022-07-29T12:28:25;3.13;;;2.90;;
21657;SDS011;10990;48.174;9.782;2022-07-29T12:30:53;2.90;;;2.60;;
21657;SDS011;10990;48.174;9.782;2022-07-29T12:33:21;2.53;;;2.28;;
21657;SDS011;10990;48.174;9.782;2022-07-29T12:35:49;3.95;;;2.90;;
21657;SDS011;10990;48.174;9.782;2022-07-29T12:38:19;3.03;;;2.80;;
21657;SDS011;10990;48.174;9.782;2022-07-29T12:40:47;3.13;;;2.83;;
21657;SDS011;10990;48.174;9.782;2022-07-29T12:43:19;2.80;;;2.60;;
21657;SDS011;10990;48.174;9.782;2022-07-29T12:45:48;3.08;;;2.45;;
21657;SDS011;10990;48.174;9.782;2022-07-29T12:48:32;3.00;;;2.70;;
21657;SDS011;10990;48.174;9.782;2022-07-29T12:51:00;3.03;;;2.40;;
21657;SDS011;10990;48.174;9.782;2022-07-29T12:53:29;3.92;;;3.00;;
21657;SDS011;10990;48.174;9.782;2022-07-29T12:55:58;2.78;;;2.58;;
21657;SDS011;10990;48.174;9.782;2022-07-29T12:58:29;2.40;;;2.20;;
21657;SDS011;10990;48.174;9.782;2022-07-29T13:01:01;2.40;;;2.20;;
21657;SDS011;10990;48.174;9.782;2022-07-29T13:03:46;3.00;;;2.70;;
21657;SDS011;10990;48.174;9.782;2022-07-29T13:06:27;2.65;;;2.40;;
21657;SDS011;10990;48.174;9.782;2022-07-29T13:08:59;3.47;;;2.60;;
21657;SDS011;10990;48.174;9.782;2022-07-29T13:11:28;3.28;;;2.38;;
21657;SDS011;10990;48.174;9.782;2022-07-29T13:13:58;2.60;;;2.40;;
21657;SDS011;10990;48.174;9.782;2022-07-29T13:16:25;3.55;;;2.60;;
21657;SDS011;10990;48.174;9.782;2022-07-29T13:19:05;2.38;;;2.20;;
21657;SDS011;10990;48.174;9.782;2022-07-29T13:21:35;2.50;;;2.30;;
21657;SDS011;10990;48.174;9.782;2022-07-29T13:24:03;3.17;;;2.58;;
21657;SDS011;10990;48.174;9.782;2022-07-29T13:26:32;2.78;;;2.58;;
21657;SDS011;10990;48.174;9.782;2022-07-29T13:29:01;2.60;;;2.35;;
21657;SDS011;10990;48.174;9.782;2022-07-29T13:31:29;3.13;;;2.50;;
21657;SDS011;10990;48.174;9.782;2022-07-29T13:33:56;2.38;;;2.17;;
21657;SDS011;10990;48.174;9.782;2022-07-29T13:36:24;3.63;;;2.25;;
21657;SDS011;10990;48.174;9.782;2022-07-29T13:38:51;2.30;;;2.10;;
21657;SDS011;10990;48.174;9.782;2022-07-29T13:41:19;2.53;;;2.30;;
21657;SDS011;10990;48.174;9.782;2022-07-29T13:43:46;2.75;;;2.53;;
21657;SDS011;10990;48.174;9.782;2022-07-29T13:46:15;3.45;;;2.40;;
21657;SDS011;10990;48.174;9.782;2022-07-29T13:48:42;2.67;;;2.40;;
21657;SDS011;10990;48.174;9.782;2022-07-29T13:51:09;2.60;;;2.40;;
21657;SDS011;10990;48.174;9.782;2022-07-29T13:53:37;2.80;;;2.60;;
21657;SDS011;10990;48.174;9.782;2022-07-29T13:56:05;2.65;;;2.45;;
21657;SDS011;10990;48.174;9.782;2022-07-29T13:58:32;2.38;;;2.28;;
21657;SDS011;10990;48.174;9.782;2022-07-29T14:00:59;4.00;;;2.72;;
21657;SDS011;10990;48.174;9.782;2022-07-29T14:03:28;2.72;;;2.42;;
21657;SDS011;10990;48.174;9.782;2022-07-29T14:05:55;3.95;;;2.63;;
21657;SDS011;10990;48.174;9.782;2022-07-29T14:08:25;2.67;;;2.30;;
21657;SDS011;10990;48.174;9.782;2022-07-29T14:10:52;3.22;;;2.45;;
21657;SDS011;10990;48.174;9.782;2022-07-29T14:13:19;2.67;;;2.40;;
21657;SDS011;10990;48.174;9.782;2022-07-29T14:15:48;2.88;;;2.28;;
21657;SDS011;10990;48.174;9.782;2022-07-29T14:18:15;2.58;;;2.38;;
21657;SDS011;10990;48.174;9.782;2022-07-29T14:20:44;2.70;;;2.50;;
21657;SDS011;10990;48.174;9.782;2022-07-29T14:23:12;2.65;;;2.25;;
21657;SDS011;10990;48.174;9.782;2022-07-29T14:25:40;2.97;;;2.67;;
21657;SDS011;10990;48.174;9.782;2022-07-29T14:28:07;2.95;;;2.75;;
21657;SDS011;10990;48.174;9.782;2022-07-29T14:30:34;2.75;;;2.55;;
21657;SDS011;10990;48.174;9.782;2022-07-29T14:33:01;2.90;;;2.30;;
21657;SDS011;10990;48.174;9.782;2022-07-29T14:35:29;4.15;;;2.63;;
21657;SDS011;10990;48.174;9.782;2022-07-29T14:37:58;4.85;;;2.40;;
21657;SDS011;10990;48.174;9.782;2022-07-29T14:40:25;4.05;;;2.40;;
21657;SDS011;10990;48.174;9.782;2022-07-29T14:42:52;3.80;;;2.42;;
21657;SDS011;10990;48.174;9.782;2022-07-29T14:45:20;3.60;;;2.58;;
21657;SDS011;10990;48.174;9.782;2022-07-29T14:47:47;5.15;;;2.90;;
21657;SDS011;10990;48.174;9.782;2022-07-29T14:50:16;5.10;;;2.65;;
21657;SDS011;10990;48.174;9.782;2022-07-29T14:52:44;2.50;;;2.30;;
21657;SDS011;10990;48.174;9.782;2022-07-29T14:55:13;2.38;;;2.17;;
21657;SDS011;10990;48.174;9.782;2022-07-29T14:57:40;2.83;;;2.17;;
21657;SDS011;10990;48.174;9.782;2022-07-29T15:00:09;2.47;;;2.28;;
21657;SDS011;10990;48.174;9.782;2022-07-29T15:02:37;3.03;;;2.10;;
21657;SDS011;10990;48.174;9.782;2022-07-29T15:05:04;2.50;;;2.20;;
21657;SDS011;10990;48.174;9.782;2022-07-29T15:07:33;3.05;;;2.25;;
21657;SDS011;10990;48.174;9.782;2022-07-29T15:10:00;2.63;;;2.20;;
21657;SDS011;10990;48.174;9.782;2022-07-29T15:12:30;2.10;;;2.00;;
21657;SDS011;10990;48.174;9.782;2022-07-29T15:14:58;2.47;;;2.28;;
21657;SDS011;10990;48.174;9.782;2022-07-29T15:17:26;2.40;;;2.20;;
21657;SDS011;10990;48.174;9.782;2022-07-29T15:19:53;3.95;;;2.40;;
21657;SDS011;10990;48.174;9.782;2022-07-29T15:22:20;3.33;;;2.50;;
21657;SDS011;10990;48.174;9.782;2022-07-29T15:24:47;4.03;;;2.30;;
21657;SDS011;10990;48.174;9.782;2022-07-29T15:27:15;2.80;;;2.60;;